sensor_id;sensor_type;location;lat;lon;timestamp;temperature;humidity
47434;SHT31;33184;48.774;8.918;2023-07-09T00:03:47;22.56;56.41
47434;SHT31;33184;48.774;8.918;2023-07-09T00:09:17;22.28;57.77
47434;SHT31;33184;48.774;8.918;2023-07-09T00:14:38;22.17;57.93
47434;SHT31;33184;48.774;8.918;2023-07-09T00:19:59;22.05;58.64
47434;SHT31;33184;48.774;8.918;2023-07-09T00:25:20;21.87;59.26
47434;SHT31;33184;48.774;8.918;2023-07-09T00:30:41;21.71;59.07
47434;SHT31;33184;48.774;8.918;2023-07-09T00:36:01;21.64;59.23
47434;SHT31;33184;48.774;8.918;2023-07-09T00:41:23;21.64;59.80
47434;SHT31;33184;48.774;8.918;2023-07-09T00:58:11;21.42;60.90
47434;SHT31;33184;48.774;8.918;2023-07-09T01:03:34;21.46;60.92
47434;SHT31;33184;48.774;8.918;2023-07-09T01:08:55;21.37;60.89
47434;SHT31;33184;48.774;8.918;2023-07-09T01:14:19;21.27;60.50
47434;SHT31;33184;48.774;8.918;2023-07-09T01:19:49;21.22;61.65
47434;SHT31;33184;48.774;8.918;2023-07-09T01:25:11;21.07;61.61
47434;SHT31;33184;48.774;8.918;2023-07-09T01:30:35;21.02;61.71
47434;SHT31;33184;48.774;8.918;2023-07-09T01:35:56;21.06;62.29
47434;SHT31;33184;48.774;8.918;2023-07-09T01:41:20;20.89;62.86
47434;SHT31;33184;48.774;8.918;2023-07-09T01:46:42;20.92;62.48
47434;SHT31;33184;48.774;8.918;2023-07-09T01:52:07;20.84;62.31
47434;SHT31;33184;48.774;8.918;2023-07-09T01:57:29;20.68;62.63
47434;SHT31;33184;48.774;8.918;2023-07-09T02:03:00;20.51;62.97
47434;SHT31;33184;48.774;8.918;2023-07-09T02:08:22;20.45;63.43
47434;SHT31;33184;48.774;8.918;2023-07-09T02:13:42;20.34;63.96
47434;SHT31;33184;48.774;8.918;2023-07-09T02:19:03;20.25;64.72
47434;SHT31;33184;48.774;8.918;2023-07-09T02:24:24;20.28;64.57
47434;SHT31;33184;48.774;8.918;2023-07-09T02:29:45;20.17;65.16
47434;SHT31;33184;48.774;8.918;2023-07-09T02:35:06;20.16;64.73
47434;SHT31;33184;48.774;8.918;2023-07-09T02:40:27;20.03;64.77
47434;SHT31;33184;48.774;8.918;2023-07-09T02:45:47;20.14;64.97
47434;SHT31;33184;48.774;8.918;2023-07-09T02:51:08;20.07;65.38
47434;SHT31;33184;48.774;8.918;2023-07-09T02:56:29;20.01;65.62
47434;SHT31;33184;48.774;8.918;2023-07-09T03:01:50;19.70;66.45
47434;SHT31;33184;48.774;8.918;2023-07-09T03:07:10;19.70;66.02
47434;SHT31;33184;48.774;8.918;2023-07-09T03:12:31;19.65;66.01
47434;SHT31;33184;48.774;8.918;2023-07-09T03:17:51;19.55;66.10
47434;SHT31;33184;48.774;8.918;2023-07-09T03:23:12;19.53;66.26
47434;SHT31;33184;48.774;8.918;2023-07-09T03:28:32;19.60;65.99
47434;SHT31;33184;48.774;8.918;2023-07-09T03:33:53;19.56;67.23
47434;SHT31;33184;48.774;8.918;2023-07-09T03:39:14;19.46;67.41
47434;SHT31;33184;48.774;8.918;2023-07-09T03:44:34;19.34;67.57
47434;SHT31;33184;48.774;8.918;2023-07-09T03:49:55;19.36;67.75
47434;SHT31;33184;48.774;8.918;2023-07-09T03:55:15;19.35;67.75
47434;SHT31;33184;48.774;8.918;2023-07-09T04:00:36;19.34;67.70
47434;SHT31;33184;48.774;8.918;2023-07-09T04:05:57;19.43;67.42
47434;SHT31;33184;48.774;8.918;2023-07-09T04:11:17;19.46;67.54
47434;SHT31;33184;48.774;8.918;2023-07-09T04:16:38;19.52;67.71
47434;SHT31;33184;48.774;8.918;2023-07-09T04:21:58;19.60;67.79
47434;SHT31;33184;48.774;8.918;2023-07-09T04:27:19;19.60;67.95
47434;SHT31;33184;48.774;8.918;2023-07-09T04:32:40;19.53;68.06
47434;SHT31;33184;48.774;8.918;2023-07-09T04:38:01;19.60;67.60
47434;SHT31;33184;48.774;8.918;2023-07-09T04:43:22;19.69;67.91
47434;SHT31;33184;48.774;8.918;2023-07-09T04:48:42;19.76;67.67
47434;SHT31;33184;48.774;8.918;2023-07-09T04:54:03;19.76;67.83
47434;SHT31;33184;48.774;8.918;2023-07-09T04:59:24;19.91;67.77
47434;SHT31;33184;48.774;8.918;2023-07-09T05:04:44;20.01;67.73
47434;SHT31;33184;48.774;8.918;2023-07-09T05:10:06;20.14;67.33
47434;SHT31;33184;48.774;8.918;2023-07-09T05:15:26;20.11;67.78
47434;SHT31;33184;48.774;8.918;2023-07-09T05:20:47;20.27;67.69
47434;SHT31;33184;48.774;8.918;2023-07-09T05:26:09;20.44;67.82
47434;SHT31;33184;48.774;8.918;2023-07-09T05:31:30;20.61;66.75
47434;SHT31;33184;48.774;8.918;2023-07-09T05:36:51;20.84;66.45
47434;SHT31;33184;48.774;8.918;2023-07-09T05:42:11;21.03;65.96
47434;SHT31;33184;48.774;8.918;2023-07-09T05:47:32;21.16;66.12
47434;SHT31;33184;48.774;8.918;2023-07-09T05:52:52;21.37;65.75
47434;SHT31;33184;48.774;8.918;2023-07-09T05:58:13;21.50;65.31
47434;SHT31;33184;48.774;8.918;2023-07-09T06:03:34;21.78;65.02
47434;SHT31;33184;48.774;8.918;2023-07-09T06:08:54;22.00;64.28
47434;SHT31;33184;48.774;8.918;2023-07-09T06:14:15;22.20;63.31
47434;SHT31;33184;48.774;8.918;2023-07-09T06:19:37;22.35;63.05
47434;SHT31;33184;48.774;8.918;2023-07-09T06:24:58;22.66;62.25
47434;SHT31;33184;48.774;8.918;2023-07-09T06:30:18;22.83;62.24
47434;SHT31;33184;48.774;8.918;2023-07-09T06:35:52;23.09;61.38
47434;SHT31;33184;48.774;8.918;2023-07-09T06:41:14;23.28;60.99
47434;SHT31;33184;48.774;8.918;2023-07-09T06:46:35;23.51;60.54
47434;SHT31;33184;48.774;8.918;2023-07-09T06:51:56;23.75;59.78
47434;SHT31;33184;48.774;8.918;2023-07-09T06:57:16;24.04;59.56
47434;SHT31;33184;48.774;8.918;2023-07-09T07:02:37;24.30;58.87
47434;SHT31;33184;48.774;8.918;2023-07-09T07:07:57;24.56;57.70
47434;SHT31;33184;48.774;8.918;2023-07-09T07:13:18;24.76;56.44
47434;SHT31;33184;48.774;8.918;2023-07-09T07:18:39;25.07;55.84
47434;SHT31;33184;48.774;8.918;2023-07-09T07:23:59;25.25;55.49
47434;SHT31;33184;48.774;8.918;2023-07-09T07:29:20;25.69;51.72
47434;SHT31;33184;48.774;8.918;2023-07-09T07:34:40;25.89;48.88
47434;SHT31;33184;48.774;8.918;2023-07-09T07:40:01;26.12;49.63
47434;SHT31;33184;48.774;8.918;2023-07-09T07:45:25;26.40;48.34
47434;SHT31;33184;48.774;8.918;2023-07-09T07:50:46;26.47;46.98
47434;SHT31;33184;48.774;8.918;2023-07-09T07:56:08;26.57;47.90
47434;SHT31;33184;48.774;8.918;2023-07-09T08:01:29;26.78;46.64
47434;SHT31;33184;48.774;8.918;2023-07-09T08:06:49;26.95;46.28
47434;SHT31;33184;48.774;8.918;2023-07-09T08:12:10;27.07;45.47
47434;SHT31;33184;48.774;8.918;2023-07-09T08:17:32;27.18;46.39
47434;SHT31;33184;48.774;8.918;2023-07-09T08:22:52;27.22;45.53
47434;SHT31;33184;48.774;8.918;2023-07-09T08:28:13;27.35;45.28
47434;SHT31;33184;48.774;8.918;2023-07-09T08:33:34;27.61;44.41
47434;SHT31;33184;48.774;8.918;2023-07-09T08:38:54;27.65;43.96
47434;SHT31;33184;48.774;8.918;2023-07-09T08:44:25;27.96;44.26
47434;SHT31;33184;48.774;8.918;2023-07-09T08:50:00;28.30;42.48
47434;SHT31;33184;48.774;8.918;2023-07-09T08:55:25;28.45;41.70
47434;SHT31;33184;48.774;8.918;2023-07-09T09:00:55;28.65;42.19
47434;SHT31;33184;48.774;8.918;2023-07-09T09:06:27;28.85;42.08
47434;SHT31;33184;48.774;8.918;2023-07-09T09:12:16;28.96;40.72
47434;SHT31;33184;48.774;8.918;2023-07-09T09:17:39;28.99;40.36
47434;SHT31;33184;48.774;8.918;2023-07-09T09:28:27;29.70;37.51
47434;SHT31;33184;48.774;8.918;2023-07-09T09:33:48;29.80;38.39
47434;SHT31;33184;48.774;8.918;2023-07-09T09:39:10;30.04;38.76
47434;SHT31;33184;48.774;8.918;2023-07-09T09:44:30;30.17;36.08
47434;SHT31;33184;48.774;8.918;2023-07-09T09:49:52;30.17;35.36
47434;SHT31;33184;48.774;8.918;2023-07-09T09:55:19;30.38;37.34
47434;SHT31;33184;48.774;8.918;2023-07-09T10:00:46;30.37;37.08
47434;SHT31;33184;48.774;8.918;2023-07-09T10:06:15;30.75;36.94
47434;SHT31;33184;48.774;8.918;2023-07-09T10:11:49;31.03;36.16
47434;SHT31;33184;48.774;8.918;2023-07-09T10:17:15;31.03;35.80
47434;SHT31;33184;48.774;8.918;2023-07-09T10:23:03;31.02;34.33
47434;SHT31;33184;48.774;8.918;2023-07-09T10:34:32;31.61;34.16
47434;SHT31;33184;48.774;8.918;2023-07-09T10:39:57;32.02;33.25
47434;SHT31;33184;48.774;8.918;2023-07-09T10:45:38;32.18;32.94
47434;SHT31;33184;48.774;8.918;2023-07-09T10:51:00;32.02;32.47
47434;SHT31;33184;48.774;8.918;2023-07-09T10:56:25;32.63;31.30
47434;SHT31;33184;48.774;8.918;2023-07-09T11:01:50;33.29;31.44
47434;SHT31;33184;48.774;8.918;2023-07-09T11:07:14;33.53;30.35
47434;SHT31;33184;48.774;8.918;2023-07-09T11:12:43;34.01;30.52
47434;SHT31;33184;48.774;8.918;2023-07-09T11:18:06;33.98;28.99
47434;SHT31;33184;48.774;8.918;2023-07-09T11:23:36;34.05;28.71
47434;SHT31;33184;48.774;8.918;2023-07-09T11:34:28;34.86;26.38
47434;SHT31;33184;48.774;8.918;2023-07-09T11:39:50;35.33;25.19
47434;SHT31;33184;48.774;8.918;2023-07-09T11:45:13;35.88;25.25
47434;SHT31;33184;48.774;8.918;2023-07-09T11:50:45;36.21;24.51
47434;SHT31;33184;48.774;8.918;2023-07-09T11:56:08;36.56;25.25
47434;SHT31;33184;48.774;8.918;2023-07-09T12:01:36;36.85;24.12
47434;SHT31;33184;48.774;8.918;2023-07-09T12:07:01;37.50;24.20
47434;SHT31;33184;48.774;8.918;2023-07-09T12:12:26;38.04;22.73
47434;SHT31;33184;48.774;8.918;2023-07-09T12:18:00;38.22;21.77
47434;SHT31;33184;48.774;8.918;2023-07-09T12:23:30;37.97;21.75
47434;SHT31;33184;48.774;8.918;2023-07-09T12:28:58;38.59;23.06
47434;SHT31;33184;48.774;8.918;2023-07-09T12:34:18;38.66;23.22
47434;SHT31;33184;48.774;8.918;2023-07-09T12:39:39;38.83;21.31
47434;SHT31;33184;48.774;8.918;2023-07-09T12:45:00;38.65;22.63
47434;SHT31;33184;48.774;8.918;2023-07-09T12:50:34;38.72;21.43
47434;SHT31;33184;48.774;8.918;2023-07-09T12:55:58;39.12;22.08
47434;SHT31;33184;48.774;8.918;2023-07-09T13:01:18;39.07;21.10
47434;SHT31;33184;48.774;8.918;2023-07-09T13:06:41;39.56;22.09
47434;SHT31;33184;48.774;8.918;2023-07-09T13:12:03;40.05;22.13
47434;SHT31;33184;48.774;8.918;2023-07-09T13:17:29;38.29;20.54
47434;SHT31;33184;48.774;8.918;2023-07-09T13:22:50;39.30;20.01
47434;SHT31;33184;48.774;8.918;2023-07-09T13:33:54;39.16;19.28
47434;SHT31;33184;48.774;8.918;2023-07-09T13:39:15;39.42;18.25
47434;SHT31;33184;48.774;8.918;2023-07-09T13:44:36;40.07;19.78
47434;SHT31;33184;48.774;8.918;2023-07-09T13:49:57;40.98;17.82
47434;SHT31;33184;48.774;8.918;2023-07-09T13:55:21;40.85;16.35
47434;SHT31;33184;48.774;8.918;2023-07-09T14:00:43;40.48;18.50
47434;SHT31;33184;48.774;8.918;2023-07-09T14:06:04;39.51;18.51
47434;SHT31;33184;48.774;8.918;2023-07-09T14:11:25;39.71;19.74
47434;SHT31;33184;48.774;8.918;2023-07-09T14:16:47;40.18;18.00
47434;SHT31;33184;48.774;8.918;2023-07-09T14:22:21;40.18;15.55
47434;SHT31;33184;48.774;8.918;2023-07-09T14:27:43;40.29;14.33
47434;SHT31;33184;48.774;8.918;2023-07-09T14:33:05;40.48;15.45
47434;SHT31;33184;48.774;8.918;2023-07-09T14:38:28;40.24;15.87
47434;SHT31;33184;48.774;8.918;2023-07-09T14:43:48;39.78;17.05
47434;SHT31;33184;48.774;8.918;2023-07-09T14:49:09;40.11;16.44
47434;SHT31;33184;48.774;8.918;2023-07-09T14:54:30;39.90;17.30
47434;SHT31;33184;48.774;8.918;2023-07-09T14:59:52;39.77;18.16
47434;SHT31;33184;48.774;8.918;2023-07-09T15:10:37;38.51;18.13
47434;SHT31;33184;48.774;8.918;2023-07-09T15:15:59;37.37;18.91
47434;SHT31;33184;48.774;8.918;2023-07-09T15:21:20;36.99;19.69
47434;SHT31;33184;48.774;8.918;2023-07-09T15:26:40;37.06;19.63
47434;SHT31;33184;48.774;8.918;2023-07-09T15:32:01;37.36;19.76
47434;SHT31;33184;48.774;8.918;2023-07-09T15:37:21;37.22;19.70
47434;SHT31;33184;48.774;8.918;2023-07-09T15:42:42;37.02;19.60
47434;SHT31;33184;48.774;8.918;2023-07-09T15:48:03;36.90;20.77
47434;SHT31;33184;48.774;8.918;2023-07-09T15:53:24;36.45;20.20
47434;SHT31;33184;48.774;8.918;2023-07-09T15:58:45;36.34;21.01
47434;SHT31;33184;48.774;8.918;2023-07-09T16:04:08;36.00;20.60
47434;SHT31;33184;48.774;8.918;2023-07-09T16:09:29;35.44;21.33
47434;SHT31;33184;48.774;8.918;2023-07-09T16:14:50;35.27;20.62
47434;SHT31;33184;48.774;8.918;2023-07-09T16:20:12;35.19;20.68
47434;SHT31;33184;48.774;8.918;2023-07-09T16:25:34;35.12;21.52
47434;SHT31;33184;48.774;8.918;2023-07-09T16:30:55;35.00;22.71
47434;SHT31;33184;48.774;8.918;2023-07-09T16:36:17;35.00;23.46
47434;SHT31;33184;48.774;8.918;2023-07-09T16:41:38;34.37;24.20
47434;SHT31;33184;48.774;8.918;2023-07-09T16:46:59;33.94;24.77
47434;SHT31;33184;48.774;8.918;2023-07-09T16:52:24;33.82;25.08
47434;SHT31;33184;48.774;8.918;2023-07-09T16:57:51;33.94;25.45
47434;SHT31;33184;48.774;8.918;2023-07-09T17:03:12;34.25;25.79
47434;SHT31;33184;48.774;8.918;2023-07-09T17:08:33;34.62;26.00
47434;SHT31;33184;48.774;8.918;2023-07-09T17:13:54;34.89;26.09
47434;SHT31;33184;48.774;8.918;2023-07-09T17:19:14;34.73;27.21
47434;SHT31;33184;48.774;8.918;2023-07-09T17:24:35;34.41;27.21
47434;SHT31;33184;48.774;8.918;2023-07-09T17:29:55;34.00;28.45
47434;SHT31;33184;48.774;8.918;2023-07-09T17:35:16;33.70;29.13
47434;SHT31;33184;48.774;8.918;2023-07-09T17:40:36;33.50;29.86
47434;SHT31;33184;48.774;8.918;2023-07-09T17:45:57;33.29;30.66
47434;SHT31;33184;48.774;8.918;2023-07-09T17:51:18;33.06;31.51
47434;SHT31;33184;48.774;8.918;2023-07-09T17:56:38;32.86;32.21
47434;SHT31;33184;48.774;8.918;2023-07-09T18:02:30;32.76;32.60
47434;SHT31;33184;48.774;8.918;2023-07-09T18:07:51;32.63;33.29
47434;SHT31;33184;48.774;8.918;2023-07-09T18:13:14;32.51;33.71
47434;SHT31;33184;48.774;8.918;2023-07-09T18:18:36;32.38;34.14
47434;SHT31;33184;48.774;8.918;2023-07-09T18:23:56;32.32;34.35
47434;SHT31;33184;48.774;8.918;2023-07-09T18:29:30;32.25;34.58
47434;SHT31;33184;48.774;8.918;2023-07-09T18:35:11;32.10;34.86
47434;SHT31;33184;48.774;8.918;2023-07-09T18:40:40;31.97;35.18
47434;SHT31;33184;48.774;8.918;2023-07-09T18:46:01;31.80;35.78
47434;SHT31;33184;48.774;8.918;2023-07-09T18:51:21;31.81;36.06
47434;SHT31;33184;48.774;8.918;2023-07-09T18:56:46;31.71;36.41
47434;SHT31;33184;48.774;8.918;2023-07-09T19:02:21;31.66;37.06
47434;SHT31;33184;48.774;8.918;2023-07-09T19:07:42;31.46;37.46
47434;SHT31;33184;48.774;8.918;2023-07-09T19:13:06;31.10;38.88
47434;SHT31;33184;48.774;8.918;2023-07-09T19:18:30;30.69;39.42
47434;SHT31;33184;48.774;8.918;2023-07-09T19:23:53;30.44;40.47
47434;SHT31;33184;48.774;8.918;2023-07-09T19:29:14;30.47;40.30
47434;SHT31;33184;48.774;8.918;2023-07-09T19:34:36;30.14;41.00
47434;SHT31;33184;48.774;8.918;2023-07-09T19:40:01;29.76;42.03
47434;SHT31;33184;48.774;8.918;2023-07-09T19:45:37;29.56;42.28
47434;SHT31;33184;48.774;8.918;2023-07-09T19:50:59;29.25;42.58
47434;SHT31;33184;48.774;8.918;2023-07-09T19:56:19;29.30;43.02
47434;SHT31;33184;48.774;8.918;2023-07-09T20:01:40;28.98;43.65
47434;SHT31;33184;48.774;8.918;2023-07-09T20:07:01;28.65;44.41
47434;SHT31;33184;48.774;8.918;2023-07-09T20:12:24;28.47;44.40
47434;SHT31;33184;48.774;8.918;2023-07-09T20:17:55;28.40;45.66
47434;SHT31;33184;48.774;8.918;2023-07-09T20:23:16;28.18;46.11
47434;SHT31;33184;48.774;8.918;2023-07-09T20:28:37;27.96;47.61
47434;SHT31;33184;48.774;8.918;2023-07-09T20:34:15;27.73;47.45
47434;SHT31;33184;48.774;8.918;2023-07-09T20:39:36;27.42;48.93
47434;SHT31;33184;48.774;8.918;2023-07-09T20:44:57;27.14;49.07
47434;SHT31;33184;48.774;8.918;2023-07-09T20:50:19;26.95;49.31
47434;SHT31;33184;48.774;8.918;2023-07-09T20:55:41;27.01;49.93
47434;SHT31;33184;48.774;8.918;2023-07-09T21:01:04;26.94;50.21
47434;SHT31;33184;48.774;8.918;2023-07-09T21:06:24;26.90;50.00
47434;SHT31;33184;48.774;8.918;2023-07-09T21:11:47;26.76;50.56
47434;SHT31;33184;48.774;8.918;2023-07-09T21:17:19;26.65;50.54
47434;SHT31;33184;48.774;8.918;2023-07-09T21:22:43;26.49;51.30
47434;SHT31;33184;48.774;8.918;2023-07-09T21:28:05;26.20;51.61
47434;SHT31;33184;48.774;8.918;2023-07-09T21:33:27;25.93;52.27
47434;SHT31;33184;48.774;8.918;2023-07-09T21:38:49;25.78;52.43
47434;SHT31;33184;48.774;8.918;2023-07-09T21:44:09;25.93;52.53
47434;SHT31;33184;48.774;8.918;2023-07-09T21:49:34;25.89;52.78
47434;SHT31;33184;48.774;8.918;2023-07-09T21:54:56;25.69;53.19
47434;SHT31;33184;48.774;8.918;2023-07-09T22:00:19;25.48;54.05
47434;SHT31;33184;48.774;8.918;2023-07-09T22:05:40;25.20;54.47
47434;SHT31;33184;48.774;8.918;2023-07-09T22:11:01;24.74;55.80
47434;SHT31;33184;48.774;8.918;2023-07-09T22:16:22;24.67;55.87
47434;SHT31;33184;48.774;8.918;2023-07-09T22:21:43;24.64;55.93
47434;SHT31;33184;48.774;8.918;2023-07-09T22:27:07;24.49;56.66
47434;SHT31;33184;48.774;8.918;2023-07-09T22:32:28;24.56;56.56
47434;SHT31;33184;48.774;8.918;2023-07-09T22:37:51;24.59;56.60
47434;SHT31;33184;48.774;8.918;2023-07-09T22:43:12;24.73;56.10
47434;SHT31;33184;48.774;8.918;2023-07-09T22:48:32;24.48;56.81
47434;SHT31;33184;48.774;8.918;2023-07-09T22:53:53;24.40;56.97
47434;SHT31;33184;48.774;8.918;2023-07-09T22:59:13;24.28;57.29
47434;SHT31;33184;48.774;8.918;2023-07-09T23:04:34;24.25;57.10
47434;SHT31;33184;48.774;8.918;2023-07-09T23:09:54;24.26;57.08
47434;SHT31;33184;48.774;8.918;2023-07-09T23:15:20;24.20;57.63
47434;SHT31;33184;48.774;8.918;2023-07-09T23:20:44;24.16;57.62
47434;SHT31;33184;48.774;8.918;2023-07-09T23:26:04;24.10;57.67
47434;SHT31;33184;48.774;8.918;2023-07-09T23:31:29;24.05;58.45
47434;SHT31;33184;48.774;8.918;2023-07-09T23:36:49;23.95;58.12
47434;SHT31;33184;48.774;8.918;2023-07-09T23:42:10;23.87;58.15
47434;SHT31;33184;48.774;8.918;2023-07-09T23:47:33;23.74;58.27
47434;SHT31;33184;48.774;8.918;2023-07-09T23:52:53;23.57;59.33
47434;SHT31;33184;48.774;8.918;2023-07-09T23:58:15;23.43;59.61
